sensor_id;sensor_type;location;lat;lon;timestamp;pressure;altitude;pressure_sealevel;temperature;humidity
13235;BME280;6683;48.506;9.050;2023-04-21T00:02:52;97741.00;;;9.09;70.41
13235;BME280;6683;48.506;9.050;2023-04-21T00:05:55;97740.13;;;9.02;70.45
13235;BME280;6683;48.506;9.050;2023-04-21T00:08:58;97741.69;;;8.96;70.60
13235;BME280;6683;48.506;9.050;2023-04-21T00:12:01;97746.88;;;8.90;70.29
13235;BME280;6683;48.506;9.050;2023-04-21T00:15:05;97749.63;;;8.81;70.04
13235;BME280;6683;48.506;9.050;2023-04-21T00:18:09;97733.34;;;8.71;69.97
13235;BME280;6683;48.506;9.050;2023-04-21T00:21:13;97724.94;;;8.61;69.97
13235;BME280;6683;48.506;9.050;2023-04-21T00:24:16;97723.22;;;8.54;70.15
13235;BME280;6683;48.506;9.050;2023-04-21T00:27:19;97720.69;;;8.46;70.37
13235;BME280;6683;48.506;9.050;2023-04-21T00:30:22;97706.81;;;8.37;70.22
13235;BME280;6683;48.506;9.050;2023-04-21T00:33:25;97712.00;;;8.31;70.29
13235;BME280;6683;48.506;9.050;2023-04-21T00:36:28;97711.75;;;8.26;70.60
13235;BME280;6683;48.506;9.050;2023-04-21T00:39:30;97724.78;;;8.19;70.46
13235;BME280;6683;48.506;9.050;2023-04-21T00:42:33;97714.00;;;8.14;70.72
13235;BME280;6683;48.506;9.050;2023-04-21T00:45:36;97710.09;;;8.10;70.73
13235;BME280;6683;48.506;9.050;2023-04-21T00:48:40;97709.22;;;8.03;70.43
13235;BME280;6683;48.506;9.050;2023-04-21T00:51:42;97709.13;;;7.96;70.38
13235;BME280;6683;48.506;9.050;2023-04-21T00:54:45;97711.03;;;7.88;70.29
13235;BME280;6683;48.506;9.050;2023-04-21T00:57:48;97709.47;;;7.79;70.21
13235;BME280;6683;48.506;9.050;2023-04-21T01:00:52;97711.38;;;7.70;70.32
13235;BME280;6683;48.506;9.050;2023-04-21T01:03:57;97705.03;;;7.65;70.42
13235;BME280;6683;48.506;9.050;2023-04-21T01:07:00;97705.91;;;7.57;70.47
13235;BME280;6683;48.506;9.050;2023-04-21T01:10:04;97707.81;;;7.49;70.31
13235;BME280;6683;48.506;9.050;2023-04-21T01:13:07;97714.59;;;7.43;70.25
13235;BME280;6683;48.506;9.050;2023-04-21T01:16:15;97712.41;;;7.32;70.35
13235;BME280;6683;48.506;9.050;2023-04-21T01:19:19;97718.34;;;7.26;70.48
13235;BME280;6683;48.506;9.050;2023-04-21T01:22:24;97717.06;;;7.22;70.71
13235;BME280;6683;48.506;9.050;2023-04-21T01:25:26;97716.28;;;7.21;70.59
13235;BME280;6683;48.506;9.050;2023-04-21T01:28:29;97719.41;;;7.17;70.63
13235;BME280;6683;48.506;9.050;2023-04-21T01:31:32;97720.41;;;7.16;70.60
13235;BME280;6683;48.506;9.050;2023-04-21T01:34:34;97721.41;;;7.15;70.73
13235;BME280;6683;48.506;9.050;2023-04-21T01:37:39;97720.59;;;7.14;70.68
13235;BME280;6683;48.506;9.050;2023-04-21T01:40:41;97730.25;;;7.14;70.81
13235;BME280;6683;48.506;9.050;2023-04-21T01:43:45;97715.53;;;7.13;70.66
13235;BME280;6683;48.506;9.050;2023-04-21T01:46:48;97722.56;;;7.12;70.84
13235;BME280;6683;48.506;9.050;2023-04-21T01:49:50;97720.13;;;7.11;70.70
13235;BME280;6683;48.506;9.050;2023-04-21T01:52:54;97722.91;;;7.09;70.93
13235;BME280;6683;48.506;9.050;2023-04-21T01:55:57;97721.28;;;7.08;70.61
13235;BME280;6683;48.506;9.050;2023-04-21T01:58:59;97727.38;;;7.09;70.77
13235;BME280;6683;48.506;9.050;2023-04-21T02:02:02;97728.00;;;7.11;71.00
13235;BME280;6683;48.506;9.050;2023-04-21T02:05:06;97733.25;;;7.11;70.93
13235;BME280;6683;48.506;9.050;2023-04-21T02:08:10;97734.03;;;7.11;71.05
13235;BME280;6683;48.506;9.050;2023-04-21T02:11:12;97729.44;;;7.13;71.09
13235;BME280;6683;48.506;9.050;2023-04-21T02:14:15;97735.50;;;7.14;71.08
13235;BME280;6683;48.506;9.050;2023-04-21T02:17:17;97744.38;;;7.13;70.93
13235;BME280;6683;48.506;9.050;2023-04-21T02:20:20;97737.31;;;7.13;71.00
13235;BME280;6683;48.506;9.050;2023-04-21T02:23:23;97746.00;;;7.14;71.08
13235;BME280;6683;48.506;9.050;2023-04-21T02:26:26;97734.69;;;7.13;71.20
13235;BME280;6683;48.506;9.050;2023-04-21T02:29:29;97729.09;;;7.16;71.42
13235;BME280;6683;48.506;9.050;2023-04-21T02:32:31;97742.22;;;7.16;71.21
13235;BME280;6683;48.506;9.050;2023-04-21T02:35:34;97738.78;;;7.16;71.32
13235;BME280;6683;48.506;9.050;2023-04-21T02:38:38;97734.34;;;7.16;71.43
13235;BME280;6683;48.506;9.050;2023-04-21T02:41:40;97740.56;;;7.15;71.21
13235;BME280;6683;48.506;9.050;2023-04-21T02:44:43;97736.31;;;7.14;71.18
13235;BME280;6683;48.506;9.050;2023-04-21T02:47:46;97738.94;;;7.14;71.43
13235;BME280;6683;48.506;9.050;2023-04-21T02:50:49;97727.44;;;7.15;71.39
13235;BME280;6683;48.506;9.050;2023-04-21T02:53:54;97716.94;;;7.15;71.51
13235;BME280;6683;48.506;9.050;2023-04-21T02:56:56;97711.88;;;7.14;71.34
13235;BME280;6683;48.506;9.050;2023-04-21T02:59:59;97718.94;;;7.13;71.44
13235;BME280;6683;48.506;9.050;2023-04-21T03:03:01;97723.38;;;7.13;71.43
13235;BME280;6683;48.506;9.050;2023-04-21T03:06:05;97713.03;;;7.11;71.50
13235;BME280;6683;48.506;9.050;2023-04-21T03:09:09;97715.66;;;7.11;71.55
13235;BME280;6683;48.506;9.050;2023-04-21T03:12:11;97715.66;;;7.11;71.43
13235;BME280;6683;48.506;9.050;2023-04-21T03:15:14;97722.13;;;7.09;71.54
13235;BME280;6683;48.506;9.050;2023-04-21T03:18:17;97722.44;;;7.06;71.23
13235;BME280;6683;48.506;9.050;2023-04-21T03:21:19;97720.84;;;7.05;71.38
13235;BME280;6683;48.506;9.050;2023-04-21T03:24:23;97722.16;;;7.01;71.40
13235;BME280;6683;48.506;9.050;2023-04-21T03:27:26;97709.22;;;6.99;71.38
13235;BME280;6683;48.506;9.050;2023-04-21T03:30:29;97706.97;;;6.96;71.44
13235;BME280;6683;48.506;9.050;2023-04-21T03:33:31;97721.06;;;6.95;71.53
13235;BME280;6683;48.506;9.050;2023-04-21T03:36:34;97729.28;;;6.92;71.13
13235;BME280;6683;48.506;9.050;2023-04-21T03:39:37;97728.66;;;6.90;71.56
13235;BME280;6683;48.506;9.050;2023-04-21T03:42:40;97724.19;;;6.91;71.69
13235;BME280;6683;48.506;9.050;2023-04-21T03:45:42;97733.72;;;6.92;71.52
13235;BME280;6683;48.506;9.050;2023-04-21T03:48:45;97719.97;;;6.90;71.42
13235;BME280;6683;48.506;9.050;2023-04-21T03:51:48;97729.28;;;6.92;71.47
13235;BME280;6683;48.506;9.050;2023-04-21T03:54:52;97730.25;;;6.91;71.30
13235;BME280;6683;48.506;9.050;2023-04-21T03:57:54;97724.19;;;6.91;71.36
13235;BME280;6683;48.506;9.050;2023-04-21T04:00:57;97717.50;;;6.88;71.20
13235;BME280;6683;48.506;9.050;2023-04-21T04:04:00;97713.56;;;6.84;71.38
13235;BME280;6683;48.506;9.050;2023-04-21T04:07:03;97717.41;;;6.82;71.34
13235;BME280;6683;48.506;9.050;2023-04-21T04:10:09;97717.72;;;6.79;71.41
13235;BME280;6683;48.506;9.050;2023-04-21T04:13:11;97728.41;;;6.77;71.49
13235;BME280;6683;48.506;9.050;2023-04-21T04:16:14;97728.09;;;6.72;71.48
13235;BME280;6683;48.506;9.050;2023-04-21T04:19:16;97716.00;;;6.71;71.48
13235;BME280;6683;48.506;9.050;2023-04-21T04:22:19;97722.03;;;6.72;71.37
13235;BME280;6683;48.506;9.050;2023-04-21T04:25:23;97719.75;;;6.69;71.34
13235;BME280;6683;48.506;9.050;2023-04-21T04:28:27;97725.84;;;6.69;71.44
13235;BME280;6683;48.506;9.050;2023-04-21T04:31:30;97719.94;;;6.67;71.15
13235;BME280;6683;48.506;9.050;2023-04-21T04:34:34;97723.38;;;6.68;71.57
13235;BME280;6683;48.506;9.050;2023-04-21T04:37:38;97730.44;;;6.67;71.59
13235;BME280;6683;48.506;9.050;2023-04-21T04:40:42;97731.09;;;6.69;71.50
13235;BME280;6683;48.506;9.050;2023-04-21T04:43:45;97736.16;;;6.71;71.22
13235;BME280;6683;48.506;9.050;2023-04-21T04:46:48;97735.13;;;6.72;71.52
13235;BME280;6683;48.506;9.050;2023-04-21T04:49:50;97741.38;;;6.71;71.33
13235;BME280;6683;48.506;9.050;2023-04-21T04:52:53;97745.63;;;6.72;71.79
13235;BME280;6683;48.506;9.050;2023-04-21T04:55:58;97744.66;;;6.73;71.69
13235;BME280;6683;48.506;9.050;2023-04-21T04:59:00;97741.69;;;6.76;71.71
13235;BME280;6683;48.506;9.050;2023-04-21T05:02:02;97737.75;;;6.80;71.59
13235;BME280;6683;48.506;9.050;2023-04-21T05:05:06;97742.44;;;6.84;71.55
13235;BME280;6683;48.506;9.050;2023-04-21T05:08:09;97745.69;;;6.86;71.57
13235;BME280;6683;48.506;9.050;2023-04-21T05:11:13;97753.22;;;6.89;71.78
13235;BME280;6683;48.506;9.050;2023-04-21T05:14:15;97767.34;;;6.88;71.43
13235;BME280;6683;48.506;9.050;2023-04-21T05:17:18;97764.06;;;6.86;71.65
13235;BME280;6683;48.506;9.050;2023-04-21T05:20:21;97764.06;;;6.86;71.46
13235;BME280;6683;48.506;9.050;2023-04-21T05:23:23;97743.91;;;6.87;71.45
13235;BME280;6683;48.506;9.050;2023-04-21T05:26:28;97737.03;;;6.86;71.39
13235;BME280;6683;48.506;9.050;2023-04-21T05:29:31;97760.66;;;6.86;71.24
13235;BME280;6683;48.506;9.050;2023-04-21T05:32:34;97758.81;;;6.86;71.24
13235;BME280;6683;48.506;9.050;2023-04-21T05:35:37;97749.16;;;6.87;71.50
13235;BME280;6683;48.506;9.050;2023-04-21T05:38:39;97757.84;;;6.87;71.35
13235;BME280;6683;48.506;9.050;2023-04-21T05:41:43;97766.53;;;6.88;71.23
13235;BME280;6683;48.506;9.050;2023-04-21T05:44:46;97779.47;;;6.89;71.44
13235;BME280;6683;48.506;9.050;2023-04-21T05:47:48;97763.41;;;6.92;71.73
13235;BME280;6683;48.506;9.050;2023-04-21T05:50:51;97743.69;;;6.96;71.62
13235;BME280;6683;48.506;9.050;2023-04-21T05:53:54;97744.31;;;6.98;71.47
13235;BME280;6683;48.506;9.050;2023-04-21T05:56:58;97723.16;;;7.00;71.55
13235;BME280;6683;48.506;9.050;2023-04-21T06:00:01;97741.97;;;7.03;71.50
13235;BME280;6683;48.506;9.050;2023-04-21T06:03:03;97747.22;;;7.03;71.30
13235;BME280;6683;48.506;9.050;2023-04-21T06:06:07;97746.06;;;7.06;71.40
13235;BME280;6683;48.506;9.050;2023-04-21T06:09:11;97745.53;;;7.10;71.74
13235;BME280;6683;48.506;9.050;2023-04-21T06:12:17;97752.41;;;7.11;71.23
13235;BME280;6683;48.506;9.050;2023-04-21T06:15:19;97749.00;;;7.11;71.37
13235;BME280;6683;48.506;9.050;2023-04-21T06:18:21;97737.50;;;7.12;71.54
13235;BME280;6683;48.506;9.050;2023-04-21T06:21:25;97735.69;;;7.12;71.33
13235;BME280;6683;48.506;9.050;2023-04-21T06:24:31;97742.75;;;7.12;71.57
13235;BME280;6683;48.506;9.050;2023-04-21T06:27:35;97750.78;;;7.10;71.62
13235;BME280;6683;48.506;9.050;2023-04-21T06:30:37;97752.06;;;7.14;71.75
13235;BME280;6683;48.506;9.050;2023-04-21T06:33:39;97748.94;;;7.19;71.63
13235;BME280;6683;48.506;9.050;2023-04-21T06:36:42;97749.19;;;7.24;71.76
13235;BME280;6683;48.506;9.050;2023-04-21T06:39:45;97749.69;;;7.28;71.67
13235;BME280;6683;48.506;9.050;2023-04-21T06:42:48;97735.41;;;7.30;71.69
13235;BME280;6683;48.506;9.050;2023-04-21T06:45:51;97738.81;;;7.31;71.50
13235;BME280;6683;48.506;9.050;2023-04-21T06:48:53;97748.34;;;7.32;71.64
13235;BME280;6683;48.506;9.050;2023-04-21T06:51:56;97756.66;;;7.35;72.08
13235;BME280;6683;48.506;9.050;2023-04-21T06:54:58;97745.09;;;7.44;71.91
13235;BME280;6683;48.506;9.050;2023-04-21T06:58:02;97744.59;;;7.49;71.89
13235;BME280;6683;48.506;9.050;2023-04-21T07:01:05;97741.25;;;7.55;71.74
13235;BME280;6683;48.506;9.050;2023-04-21T07:04:07;97747.75;;;7.59;71.69
13235;BME280;6683;48.506;9.050;2023-04-21T07:07:10;97750.66;;;7.64;71.60
13235;BME280;6683;48.506;9.050;2023-04-21T07:10:14;97744.13;;;7.60;71.38
13235;BME280;6683;48.506;9.050;2023-04-21T07:13:20;97745.16;;;7.59;71.49
13235;BME280;6683;48.506;9.050;2023-04-21T07:16:23;97739.69;;;7.60;71.65
13235;BME280;6683;48.506;9.050;2023-04-21T07:19:26;97745.69;;;7.69;72.00
13235;BME280;6683;48.506;9.050;2023-04-21T07:22:29;97739.38;;;7.78;72.09
13235;BME280;6683;48.506;9.050;2023-04-21T07:25:31;97742.72;;;7.86;71.83
13235;BME280;6683;48.506;9.050;2023-04-21T07:28:36;97740.19;;;7.93;71.92
13235;BME280;6683;48.506;9.050;2023-04-21T07:31:40;97732.88;;;8.03;71.90
13235;BME280;6683;48.506;9.050;2023-04-21T07:34:43;97732.13;;;8.09;71.71
13235;BME280;6683;48.506;9.050;2023-04-21T07:37:48;97734.03;;;8.15;71.74
13235;BME280;6683;48.506;9.050;2023-04-21T07:40:50;97737.53;;;8.22;71.95
13235;BME280;6683;48.506;9.050;2023-04-21T07:43:54;97743.56;;;8.31;71.99
13235;BME280;6683;48.506;9.050;2023-04-21T07:46:57;97738.38;;;8.37;71.90
13235;BME280;6683;48.506;9.050;2023-04-21T07:50:00;97739.91;;;8.46;72.07
13235;BME280;6683;48.506;9.050;2023-04-21T07:53:02;97735.38;;;8.55;71.97
13235;BME280;6683;48.506;9.050;2023-04-21T07:56:05;97720.53;;;8.68;72.25
13235;BME280;6683;48.506;9.050;2023-04-21T07:59:09;97715.63;;;8.80;71.88
13235;BME280;6683;48.506;9.050;2023-04-21T08:02:12;97713.28;;;8.92;71.82
13235;BME280;6683;48.506;9.050;2023-04-21T08:05:15;97711.41;;;9.07;72.13
13235;BME280;6683;48.506;9.050;2023-04-21T08:08:17;97709.91;;;9.19;71.71
13235;BME280;6683;48.506;9.050;2023-04-21T08:11:22;97714.91;;;9.35;71.54
13235;BME280;6683;48.506;9.050;2023-04-21T08:14:26;97713.41;;;9.47;71.56
13235;BME280;6683;48.506;9.050;2023-04-21T08:17:28;97722.00;;;9.62;71.45
13235;BME280;6683;48.506;9.050;2023-04-21T08:20:31;97714.00;;;9.77;71.43
13235;BME280;6683;48.506;9.050;2023-04-21T08:23:34;97710.88;;;9.94;71.18
13235;BME280;6683;48.506;9.050;2023-04-21T08:26:36;97705.69;;;10.07;71.06
13235;BME280;6683;48.506;9.050;2023-04-21T08:29:41;97718.50;;;10.10;70.76
13235;BME280;6683;48.506;9.050;2023-04-21T08:32:43;97710.03;;;10.21;71.02
13235;BME280;6683;48.506;9.050;2023-04-21T08:35:46;97704.25;;;10.45;71.63
13235;BME280;6683;48.506;9.050;2023-04-21T08:38:49;97688.69;;;10.70;71.85
13235;BME280;6683;48.506;9.050;2023-04-21T08:41:51;97682.06;;;11.00;71.75
13235;BME280;6683;48.506;9.050;2023-04-21T08:44:55;97679.41;;;11.33;72.11
13235;BME280;6683;48.506;9.050;2023-04-21T08:47:59;97681.63;;;11.62;71.62
13235;BME280;6683;48.506;9.050;2023-04-21T08:51:02;97698.34;;;11.76;71.16
13235;BME280;6683;48.506;9.050;2023-04-21T08:54:05;97680.38;;;11.97;71.42
13235;BME280;6683;48.506;9.050;2023-04-21T08:57:08;97685.59;;;12.24;71.26
13235;BME280;6683;48.506;9.050;2023-04-21T09:00:13;97680.97;;;12.57;71.14
13235;BME280;6683;48.506;9.050;2023-04-21T09:03:21;97673.69;;;12.83;70.29
13235;BME280;6683;48.506;9.050;2023-04-21T09:06:24;97665.81;;;13.02;70.41
13235;BME280;6683;48.506;9.050;2023-04-21T09:09:53;97667.03;;;13.37;70.81
13235;BME280;6683;48.506;9.050;2023-04-21T09:12:55;97668.75;;;13.74;70.96
13235;BME280;6683;48.506;9.050;2023-04-21T09:16:03;97658.44;;;14.20;70.90
13235;BME280;6683;48.506;9.050;2023-04-21T09:19:14;97640.53;;;14.64;69.34
13235;BME280;6683;48.506;9.050;2023-04-21T09:22:17;97645.84;;;14.93;68.86
13235;BME280;6683;48.506;9.050;2023-04-21T09:25:20;97638.16;;;15.27;68.85
13235;BME280;6683;48.506;9.050;2023-04-21T09:28:30;97638.81;;;15.52;68.48
13235;BME280;6683;48.506;9.050;2023-04-21T09:31:35;97625.94;;;15.72;68.45
13235;BME280;6683;48.506;9.050;2023-04-21T09:34:40;97625.94;;;15.95;68.21
13235;BME280;6683;48.506;9.050;2023-04-21T09:37:44;97617.31;;;16.16;67.52
13235;BME280;6683;48.506;9.050;2023-04-21T09:40:56;97612.13;;;16.38;67.55
13235;BME280;6683;48.506;9.050;2023-04-21T09:44:00;97608.94;;;16.64;66.63
13235;BME280;6683;48.506;9.050;2023-04-21T09:47:09;97606.25;;;16.92;66.94
13235;BME280;6683;48.506;9.050;2023-04-21T09:50:14;97600.34;;;17.23;66.33
13235;BME280;6683;48.506;9.050;2023-04-21T09:53:20;97608.69;;;17.60;66.03
13235;BME280;6683;48.506;9.050;2023-04-21T09:56:24;97603.72;;;18.07;64.95
13235;BME280;6683;48.506;9.050;2023-04-21T09:59:31;97600.28;;;18.55;63.70
13235;BME280;6683;48.506;9.050;2023-04-21T10:02:41;97596.84;;;18.86;62.72
13235;BME280;6683;48.506;9.050;2023-04-21T10:05:44;97590.97;;;19.15;62.18
13235;BME280;6683;48.506;9.050;2023-04-21T10:08:49;97590.94;;;19.42;61.43
13235;BME280;6683;48.506;9.050;2023-04-21T10:11:52;97590.84;;;19.69;59.99
13235;BME280;6683;48.506;9.050;2023-04-21T10:14:56;97580.50;;;19.87;59.15
13235;BME280;6683;48.506;9.050;2023-04-21T10:18:16;97576.25;;;19.91;59.14
13235;BME280;6683;48.506;9.050;2023-04-21T10:21:20;97570.66;;;20.03;58.75
13235;BME280;6683;48.506;9.050;2023-04-21T10:24:27;97567.81;;;20.20;59.29
13235;BME280;6683;48.506;9.050;2023-04-21T10:27:33;97564.41;;;20.44;58.40
13235;BME280;6683;48.506;9.050;2023-04-21T10:30:36;97571.69;;;20.64;57.71
13235;BME280;6683;48.506;9.050;2023-04-21T10:33:40;97565.31;;;20.90;57.09
13235;BME280;6683;48.506;9.050;2023-04-21T10:37:11;97555.94;;;21.23;58.21
13235;BME280;6683;48.506;9.050;2023-04-21T10:40:33;97550.47;;;21.68;57.18
13235;BME280;6683;48.506;9.050;2023-04-21T10:43:43;97551.16;;;22.14;56.87
13235;BME280;6683;48.506;9.050;2023-04-21T10:46:47;97539.06;;;22.65;55.41
13235;BME280;6683;48.506;9.050;2023-04-21T10:49:51;97541.72;;;23.04;54.45
13235;BME280;6683;48.506;9.050;2023-04-21T10:52:56;97537.31;;;23.47;54.17
13235;BME280;6683;48.506;9.050;2023-04-21T10:55:59;97533.75;;;24.04;53.03
13235;BME280;6683;48.506;9.050;2023-04-21T10:59:02;97526.47;;;24.46;51.94
13235;BME280;6683;48.506;9.050;2023-04-21T11:02:05;97513.53;;;24.62;50.78
13235;BME280;6683;48.506;9.050;2023-04-21T11:05:10;97508.78;;;24.73;50.36
13235;BME280;6683;48.506;9.050;2023-04-21T11:08:14;97505.84;;;25.06;50.29
13235;BME280;6683;48.506;9.050;2023-04-21T11:11:21;97506.59;;;25.39;48.84
13235;BME280;6683;48.506;9.050;2023-04-21T11:14:24;97497.94;;;25.56;47.98
13235;BME280;6683;48.506;9.050;2023-04-21T11:17:27;97503.25;;;25.74;47.62
13235;BME280;6683;48.506;9.050;2023-04-21T11:20:31;97492.75;;;25.73;46.22
13235;BME280;6683;48.506;9.050;2023-04-21T11:23:33;97502.69;;;25.64;46.44
13235;BME280;6683;48.506;9.050;2023-04-21T11:26:36;97490.16;;;25.95;46.83
13235;BME280;6683;48.506;9.050;2023-04-21T11:29:40;97488.84;;;26.20;46.19
13235;BME280;6683;48.506;9.050;2023-04-21T11:32:44;97489.66;;;25.93;46.41
13235;BME280;6683;48.506;9.050;2023-04-21T11:35:49;97487.63;;;26.12;46.05
13235;BME280;6683;48.506;9.050;2023-04-21T11:38:57;97492.63;;;26.32;45.86
13235;BME280;6683;48.506;9.050;2023-04-21T11:42:00;97483.44;;;26.55;45.61
13235;BME280;6683;48.506;9.050;2023-04-21T11:45:03;97471.44;;;26.70;44.68
13235;BME280;6683;48.506;9.050;2023-04-21T11:48:14;97475.81;;;26.57;44.26
13235;BME280;6683;48.506;9.050;2023-04-21T11:51:19;97468.09;;;26.51;44.11
13235;BME280;6683;48.506;9.050;2023-04-21T11:54:21;97469.28;;;26.58;44.51
13235;BME280;6683;48.506;9.050;2023-04-21T11:57:25;97465.13;;;26.74;44.38
13235;BME280;6683;48.506;9.050;2023-04-21T12:00:29;97464.56;;;26.86;43.40
13235;BME280;6683;48.506;9.050;2023-04-21T12:03:32;97453.38;;;26.79;43.39
13235;BME280;6683;48.506;9.050;2023-04-21T12:06:37;97453.91;;;26.67;42.77
13235;BME280;6683;48.506;9.050;2023-04-21T12:09:39;97450.50;;;26.62;42.92
13235;BME280;6683;48.506;9.050;2023-04-21T12:12:42;97442.94;;;26.50;43.46
13235;BME280;6683;48.506;9.050;2023-04-21T12:15:44;97438.84;;;26.39;43.68
13235;BME280;6683;48.506;9.050;2023-04-21T12:18:47;97431.88;;;26.25;43.43
13235;BME280;6683;48.506;9.050;2023-04-21T12:21:54;97435.34;;;26.03;43.45
13235;BME280;6683;48.506;9.050;2023-04-21T12:24:56;97441.03;;;26.01;43.87
13235;BME280;6683;48.506;9.050;2023-04-21T12:27:59;97439.03;;;26.07;43.82
13235;BME280;6683;48.506;9.050;2023-04-21T12:31:01;97444.97;;;26.09;44.07
13235;BME280;6683;48.506;9.050;2023-04-21T12:34:03;97439.03;;;26.07;44.11
13235;BME280;6683;48.506;9.050;2023-04-21T12:37:08;97443.44;;;26.17;44.14
13235;BME280;6683;48.506;9.050;2023-04-21T12:40:10;97431.72;;;26.21;44.27
13235;BME280;6683;48.506;9.050;2023-04-21T12:43:13;97426.72;;;26.14;43.43
13235;BME280;6683;48.506;9.050;2023-04-21T12:46:16;97424.81;;;26.01;43.88
13235;BME280;6683;48.506;9.050;2023-04-21T12:49:18;97419.63;;;26.05;44.21
13235;BME280;6683;48.506;9.050;2023-04-21T12:52:22;97421.81;;;26.17;43.85
13235;BME280;6683;48.506;9.050;2023-04-21T12:55:25;97411.47;;;26.19;43.74
13235;BME280;6683;48.506;9.050;2023-04-21T12:58:27;97404.06;;;26.24;43.75
13235;BME280;6683;48.506;9.050;2023-04-21T13:01:30;97406.88;;;26.19;43.71
13235;BME280;6683;48.506;9.050;2023-04-21T13:04:33;97407.97;;;26.18;43.73
13235;BME280;6683;48.506;9.050;2023-04-21T13:07:37;97405.38;;;26.13;43.95
13235;BME280;6683;48.506;9.050;2023-04-21T13:10:41;97412.00;;;26.07;43.81
13235;BME280;6683;48.506;9.050;2023-04-21T13:13:45;97411.00;;;26.03;43.60
13235;BME280;6683;48.506;9.050;2023-04-21T13:16:48;97413.72;;;26.03;43.71
13235;BME280;6683;48.506;9.050;2023-04-21T13:19:50;97410.19;;;26.02;43.39
13235;BME280;6683;48.506;9.050;2023-04-21T13:22:54;97402.69;;;25.99;43.51
13235;BME280;6683;48.506;9.050;2023-04-21T13:25:57;97392.97;;;25.98;43.78
13235;BME280;6683;48.506;9.050;2023-04-21T13:28:59;97392.06;;;26.03;43.70
13235;BME280;6683;48.506;9.050;2023-04-21T13:32:03;97396.84;;;26.06;43.49
13235;BME280;6683;48.506;9.050;2023-04-21T13:35:07;97386.75;;;25.98;43.85
13235;BME280;6683;48.506;9.050;2023-04-21T13:38:11;97396.09;;;25.92;43.65
13235;BME280;6683;48.506;9.050;2023-04-21T13:41:14;97391.09;;;25.85;43.90
13235;BME280;6683;48.506;9.050;2023-04-21T13:44:16;97389.59;;;25.79;44.02
13235;BME280;6683;48.506;9.050;2023-04-21T13:47:19;97384.31;;;25.74;43.90
13235;BME280;6683;48.506;9.050;2023-04-21T13:50:21;97374.19;;;25.66;44.03
13235;BME280;6683;48.506;9.050;2023-04-21T13:53:25;97365.00;;;25.54;43.95
13235;BME280;6683;48.506;9.050;2023-04-21T13:56:27;97352.44;;;25.49;44.58
13235;BME280;6683;48.506;9.050;2023-04-21T13:59:29;97343.78;;;25.47;44.65
13235;BME280;6683;48.506;9.050;2023-04-21T14:02:32;97342.81;;;25.43;44.63
13235;BME280;6683;48.506;9.050;2023-04-21T14:05:35;97357.13;;;25.30;44.62
13235;BME280;6683;48.506;9.050;2023-04-21T14:08:39;97363.63;;;25.15;44.67
13235;BME280;6683;48.506;9.050;2023-04-21T14:11:41;97351.09;;;25.06;44.63
13235;BME280;6683;48.506;9.050;2023-04-21T14:14:44;97352.88;;;24.83;44.87
13235;BME280;6683;48.506;9.050;2023-04-21T14:17:47;97357.88;;;24.57;44.66
13235;BME280;6683;48.506;9.050;2023-04-21T14:20:50;97351.03;;;24.33;44.34
13235;BME280;6683;48.506;9.050;2023-04-21T14:23:53;97343.06;;;24.09;44.47
13235;BME280;6683;48.506;9.050;2023-04-21T14:26:56;97340.13;;;23.87;44.79
13235;BME280;6683;48.506;9.050;2023-04-21T14:29:58;97333.16;;;23.67;44.77
13235;BME280;6683;48.506;9.050;2023-04-21T14:33:01;97346.53;;;23.54;45.40
13235;BME280;6683;48.506;9.050;2023-04-21T14:36:04;97333.47;;;23.42;45.57
13235;BME280;6683;48.506;9.050;2023-04-21T14:39:08;97334.41;;;23.33;45.46
13235;BME280;6683;48.506;9.050;2023-04-21T14:42:11;97332.63;;;23.23;45.60
13235;BME280;6683;48.506;9.050;2023-04-21T14:45:13;97332.97;;;23.17;45.99
13235;BME280;6683;48.506;9.050;2023-04-21T14:48:16;97318.25;;;23.09;45.77
13235;BME280;6683;48.506;9.050;2023-04-21T14:51:18;97322.66;;;23.00;45.65
13235;BME280;6683;48.506;9.050;2023-04-21T14:54:22;97307.97;;;22.92;45.89
13235;BME280;6683;48.506;9.050;2023-04-21T14:57:25;97311.50;;;22.88;46.18
13235;BME280;6683;48.506;9.050;2023-04-21T15:00:28;97312.88;;;22.85;46.04
13235;BME280;6683;48.506;9.050;2023-04-21T15:03:31;97311.53;;;22.83;46.35
13235;BME280;6683;48.506;9.050;2023-04-21T15:06:34;97305.34;;;22.82;46.22
13235;BME280;6683;48.506;9.050;2023-04-21T15:09:38;97310.22;;;22.80;46.42
13235;BME280;6683;48.506;9.050;2023-04-21T15:12:45;97306.25;;;22.78;46.81
13235;BME280;6683;48.506;9.050;2023-04-21T15:15:48;97312.97;;;22.75;46.76
13235;BME280;6683;48.506;9.050;2023-04-21T15:18:51;97309.19;;;22.76;46.79
13235;BME280;6683;48.506;9.050;2023-04-21T15:21:55;97304.84;;;22.80;46.70
13235;BME280;6683;48.506;9.050;2023-04-21T15:24:58;97308.56;;;22.84;46.85
13235;BME280;6683;48.506;9.050;2023-04-21T15:28:01;97307.19;;;22.87;46.91
13235;BME280;6683;48.506;9.050;2023-04-21T15:31:04;97301.00;;;22.86;47.07
13235;BME280;6683;48.506;9.050;2023-04-21T15:34:07;97295.69;;;22.81;46.62
13235;BME280;6683;48.506;9.050;2023-04-21T15:37:10;97296.03;;;22.75;46.58
13235;BME280;6683;48.506;9.050;2023-04-21T15:40:16;97309.53;;;22.70;47.01
13235;BME280;6683;48.506;9.050;2023-04-21T15:43:18;97310.97;;;22.62;46.85
13235;BME280;6683;48.506;9.050;2023-04-21T15:46:21;97311.25;;;22.56;46.71
13235;BME280;6683;48.506;9.050;2023-04-21T15:49:24;97307.81;;;22.50;47.05
13235;BME280;6683;48.506;9.050;2023-04-21T15:52:27;97303.06;;;22.42;46.97
13235;BME280;6683;48.506;9.050;2023-04-21T15:55:31;97305.00;;;22.37;47.07
13235;BME280;6683;48.506;9.050;2023-04-21T15:58:34;97303.94;;;22.33;46.79
13235;BME280;6683;48.506;9.050;2023-04-21T16:01:37;97304.53;;;22.30;46.83
13235;BME280;6683;48.506;9.050;2023-04-21T16:04:40;97301.31;;;22.27;47.01
13235;BME280;6683;48.506;9.050;2023-04-21T16:07:43;97299.72;;;22.26;46.89
13235;BME280;6683;48.506;9.050;2023-04-21T16:10:47;97300.50;;;22.27;46.65
13235;BME280;6683;48.506;9.050;2023-04-21T16:13:50;97296.72;;;22.28;46.94
13235;BME280;6683;48.506;9.050;2023-04-21T16:16:53;97300.81;;;22.25;46.87
13235;BME280;6683;48.506;9.050;2023-04-21T16:19:55;97309.13;;;22.24;47.18
13235;BME280;6683;48.506;9.050;2023-04-21T16:22:57;97305.41;;;22.20;47.53
13235;BME280;6683;48.506;9.050;2023-04-21T16:26:01;97307.84;;;22.21;47.61
13235;BME280;6683;48.506;9.050;2023-04-21T16:29:05;97312.31;;;22.31;47.48
13235;BME280;6683;48.506;9.050;2023-04-21T16:32:08;97305.78;;;22.37;47.81
13235;BME280;6683;48.506;9.050;2023-04-21T16:35:11;97314.91;;;22.41;47.87